Time;durP1;ratioP1;P1;durP2;ratioP2;P2;SDS_P1;SDS_P2;PMS_P1;PMS_P2;Temp;Humidity;BMP_temperature;BMP_pressure;BME280_temperature;BME280_humidity;BME280_pressure;Samples;Min_cycle;Max_cycle;Signal;HPM_P1;HPM_P2
2023/06/10 00:02:00;;;;;;;26.48;9.00;;;18.70;99.90;;;;;;5039179;28;20064;-63
2023/06/10 00:04:27;;;;;;;20.52;7.38;;;18.70;99.90;;;;;;5032232;28;20068;-63
2023/06/10 00:06:55;;;;;;;23.08;8.57;;;18.70;99.90;;;;;;5034122;28;20053;-64
2023/06/10 00:09:22;;;;;;;21.13;8.80;;;18.60;99.90;;;;;;5042274;28;20040;-63
2023/06/10 00:11:49;;;;;;;22.52;9.30;;;18.70;99.90;;;;;;5036363;28;20045;-63
2023/06/10 00:14:16;;;;;;;24.98;10.30;;;18.60;99.90;;;;;;5024922;28;20044;-64
2023/06/10 00:16:44;;;;;;;22.98;8.77;;;18.50;99.90;;;;;;5040490;28;20046;-64
2023/06/10 00:19:13;;;;;;;22.02;8.80;;;18.50;99.90;;;;;;5014741;28;20050;-63
2023/06/10 00:21:40;;;;;;;23.70;9.38;;;18.50;99.90;;;;;;5033066;28;20103;-63
2023/06/10 00:24:13;;;;;;;20.92;8.48;;;18.40;99.90;;;;;;5031752;28;20144;-63
2023/06/10 00:26:41;;;;;;;24.42;9.85;;;18.30;99.90;;;;;;5036788;28;20096;-63
2023/06/10 00:29:08;;;;;;;25.98;8.38;;;18.20;99.90;;;;;;5043976;28;20041;-64
2023/06/10 00:31:36;;;;;;;25.05;8.98;;;18.20;99.90;;;;;;5037337;28;20049;-63
2023/06/10 00:34:03;;;;;;;22.63;8.27;;;18.20;99.90;;;;;;5033854;28;20045;-63
2023/06/10 00:36:30;;;;;;;23.15;9.05;;;18.10;99.90;;;;;;5038467;28;20049;-64
2023/06/10 00:38:57;;;;;;;21.85;8.15;;;18.10;99.90;;;;;;5044763;28;20153;-63
2023/06/10 00:41:26;;;;;;;29.77;9.35;;;18.00;99.90;;;;;;5039841;28;20084;-63
2023/06/10 00:43:53;;;;;;;21.95;7.95;;;18.00;99.90;;;;;;5043027;28;20120;-63
2023/06/10 00:46:21;;;;;;;17.05;7.78;;;17.90;99.90;;;;;;5039210;28;20065;-65
2023/06/10 00:48:48;;;;;;;26.60;9.52;;;17.80;99.90;;;;;;5022098;28;20045;-63
2023/06/10 00:51:15;;;;;;;26.20;8.00;;;17.80;99.90;;;;;;5018754;28;20343;-63
2023/06/10 00:53:42;;;;;;;25.70;8.13;;;17.80;99.90;;;;;;5022313;28;20518;-63
2023/06/10 00:56:09;;;;;;;32.40;8.93;;;17.70;99.90;;;;;;5038546;28;20037;-63
2023/06/10 00:58:36;;;;;;;19.92;6.85;;;17.60;99.90;;;;;;5029103;28;20102;-63
2023/06/10 01:01:03;;;;;;;21.13;7.97;;;17.60;99.90;;;;;;5034385;28;20052;-63
2023/06/10 01:03:32;;;;;;;22.10;8.05;;;17.60;99.90;;;;;;5032471;28;20508;-63
2023/06/10 01:06:04;;;;;;;27.20;7.88;;;17.60;99.90;;;;;;5027947;28;20045;-62
2023/06/10 01:08:55;;;;;;;20.92;7.97;;;17.60;99.90;;;;;;5026337;28;20110;-62
2023/06/10 01:11:25;;;;;;;20.23;7.95;;;17.50;99.90;;;;;;5036333;28;20049;-62
2023/06/10 01:13:52;;;;;;;19.83;8.60;;;17.50;99.90;;;;;;5016443;28;20053;-62
2023/06/10 01:16:22;;;;;;;21.85;7.57;;;17.50;99.90;;;;;;5017829;28;20045;-62
2023/06/10 01:18:48;;;;;;;27.67;9.35;;;17.50;99.90;;;;;;5016740;28;20068;-63
2023/06/10 01:21:24;;;;;;;25.05;9.32;;;17.40;99.90;;;;;;4665568;28;10000378;-62
2023/06/10 01:23:55;;;;;;;20.17;8.27;;;17.30;99.90;;;;;;5028755;28;20052;-62
2023/06/10 01:26:25;;;;;;;16.77;7.97;;;17.20;99.90;;;;;;5032153;28;20051;-62
2023/06/10 01:28:57;;;;;;;20.98;7.70;;;17.20;99.90;;;;;;5024788;28;20056;-63
2023/06/10 01:31:33;;;;;;;20.70;8.00;;;17.20;99.90;;;;;;5013600;28;20122;-62
2023/06/10 01:34:02;;;;;;;25.70;9.80;;;17.20;99.90;;;;;;5023064;28;20068;-62
2023/06/10 01:36:29;;;;;;;21.65;9.07;;;17.10;99.90;;;;;;5012636;28;20069;-63
2023/06/10 01:38:56;;;;;;;19.85;9.00;;;17.10;99.90;;;;;;5019022;28;20139;-65
2023/06/10 01:41:22;;;;;;;36.25;9.05;;;17.10;99.90;;;;;;5026298;28;20064;-63
2023/06/10 01:43:49;;;;;;;23.95;8.43;;;17.10;99.90;;;;;;5013274;28;20045;-63
2023/06/10 01:46:19;;;;;;;20.27;7.43;;;17.00;99.90;;;;;;5024027;28;20099;-63
2023/06/10 01:48:47;;;;;;;18.48;8.30;;;17.00;99.90;;;;;;5014328;28;20054;-63
2023/06/10 01:51:13;;;;;;;19.88;7.43;;;17.00;99.90;;;;;;5026373;28;20050;-63
2023/06/10 01:53:40;;;;;;;29.35;9.73;;;16.90;99.90;;;;;;5014516;28;20046;-63
2023/06/10 01:56:07;;;;;;;23.13;7.80;;;16.90;99.90;;;;;;5026261;28;20459;-63
2023/06/10 01:58:34;;;;;;;22.58;7.95;;;16.80;99.90;;;;;;5017199;28;20471;-62
2023/06/10 02:01:01;;;;;;;30.63;8.48;;;16.90;99.90;;;;;;5014902;28;20093;-63
2023/06/10 02:03:28;;;;;;;23.10;8.15;;;16.80;99.90;;;;;;5015128;28;20568;-61
2023/06/10 02:05:55;;;;;;;23.25;8.38;;;16.80;99.90;;;;;;5015361;28;20054;-63
2023/06/10 02:08:22;;;;;;;19.45;6.95;;;16.80;99.90;;;;;;5011995;28;20042;-63
2023/06/10 02:10:49;;;;;;;30.13;8.48;;;16.80;99.90;;;;;;5025062;28;20060;-61
2023/06/10 02:13:15;;;;;;;24.25;8.27;;;16.70;99.90;;;;;;5018937;28;20046;-62
2023/06/10 02:15:42;;;;;;;18.30;7.22;;;16.70;99.90;;;;;;5009021;28;20081;-63
2023/06/10 02:18:11;;;;;;;16.50;7.55;;;16.70;99.90;;;;;;5013673;28;20056;-62
2023/06/10 02:20:38;;;;;;;19.45;9.45;;;16.70;99.90;;;;;;5011569;28;20516;-62
2023/06/10 02:23:05;;;;;;;23.65;8.32;;;16.70;99.90;;;;;;5023800;28;20049;-62
2023/06/10 02:25:32;;;;;;;17.88;7.75;;;16.60;99.90;;;;;;5020475;28;20049;-63
2023/06/10 02:27:59;;;;;;;22.75;7.93;;;16.70;99.90;;;;;;5010448;28;20048;-63
2023/06/10 02:30:26;;;;;;;27.50;8.38;;;16.60;99.90;;;;;;5017476;28;20453;-62
2023/06/10 02:32:53;;;;;;;22.77;8.05;;;16.60;99.90;;;;;;5025445;28;20053;-63
2023/06/10 02:35:20;;;;;;;24.38;8.95;;;16.70;99.90;;;;;;5015713;28;20559;-63
2023/06/10 02:37:46;;;;;;;20.23;7.28;;;16.60;99.90;;;;;;5013630;28;20072;-63
2023/06/10 02:40:13;;;;;;;23.48;8.52;;;16.60;99.90;;;;;;5033192;28;20669;-62
2023/06/10 02:42:40;;;;;;;19.77;8.65;;;16.60;99.90;;;;;;5026833;28;20049;-63
2023/06/10 02:45:08;;;;;;;23.35;7.93;;;16.60;99.90;;;;;;5037243;28;20324;-62
2023/06/10 02:47:37;;;;;;;29.92;9.20;;;16.60;99.90;;;;;;5037787;28;20435;-62
2023/06/10 02:50:04;;;;;;;23.40;7.55;;;16.50;99.90;;;;;;5036564;28;20521;-63
2023/06/10 02:52:31;;;;;;;29.17;9.38;;;16.50;99.90;;;;;;5036129;28;20147;-62
2023/06/10 02:54:58;;;;;;;18.95;7.88;;;16.50;99.90;;;;;;5042271;28;20041;-62
2023/06/10 02:57:25;;;;;;;25.50;6.97;;;16.50;99.90;;;;;;5037127;28;20057;-62
2023/06/10 02:59:53;;;;;;;20.80;7.78;;;16.50;99.90;;;;;;5032168;28;20042;-61
2023/06/10 03:02:20;;;;;;;21.25;7.30;;;16.40;99.90;;;;;;5041346;28;20052;-62
2023/06/10 03:04:47;;;;;;;18.90;7.53;;;16.40;99.90;;;;;;5033328;28;20060;-62
2023/06/10 03:07:14;;;;;;;33.25;8.18;;;16.40;99.90;;;;;;5043501;28;20462;-62
2023/06/10 03:09:41;;;;;;;27.85;8.80;;;16.40;99.90;;;;;;5044704;28;20049;-62
2023/06/10 03:12:11;;;;;;;29.92;8.40;;;16.40;99.90;;;;;;5032068;28;20061;-63
2023/06/10 03:14:38;;;;;;;24.95;7.00;;;16.40;99.90;;;;;;5043357;28;20116;-62
2023/06/10 03:17:06;;;;;;;22.60;9.23;;;16.30;99.90;;;;;;5047262;28;20049;-62
2023/06/10 03:19:33;;;;;;;20.85;7.82;;;16.30;99.90;;;;;;5050531;28;20069;-62
2023/06/10 03:22:10;;;;;;;27.13;8.75;;;16.20;99.90;;;;;;5043207;28;20056;-63
2023/06/10 03:24:39;;;;;;;20.17;8.10;;;16.20;99.90;;;;;;5044195;28;20053;-63
2023/06/10 03:27:07;;;;;;;30.27;8.77;;;16.20;99.90;;;;;;5044408;28;20484;-62
2023/06/10 03:29:34;;;;;;;24.00;8.30;;;16.20;99.90;;;;;;5048851;28;20471;-63
2023/06/10 03:32:01;;;;;;;20.42;8.02;;;16.10;99.90;;;;;;5038182;28;20432;-63
2023/06/10 03:34:29;;;;;;;31.35;8.23;;;16.10;99.90;;;;;;5043760;28;20045;-62
2023/06/10 03:36:57;;;;;;;27.27;8.70;;;16.10;99.90;;;;;;5036165;28;20037;-63
2023/06/10 03:39:24;;;;;;;20.75;8.95;;;16.10;99.90;;;;;;5030224;28;20509;-62
2023/06/10 03:41:51;;;;;;;24.55;8.30;;;16.00;99.90;;;;;;5039684;28;20051;-62
2023/06/10 03:44:17;;;;;;;22.73;8.70;;;16.10;99.90;;;;;;5021577;28;20408;-62
2023/06/10 03:46:45;;;;;;;37.38;10.38;;;16.10;99.90;;;;;;5041671;28;20049;-62
2023/06/10 03:49:12;;;;;;;22.70;8.50;;;16.00;99.90;;;;;;5032568;28;20049;-62
2023/06/10 03:51:39;;;;;;;21.67;7.43;;;16.00;99.90;;;;;;5038887;28;20099;-62
2023/06/10 03:54:06;;;;;;;15.13;7.53;;;16.00;99.90;;;;;;5044871;28;20052;-63
2023/06/10 03:56:32;;;;;;;23.50;7.75;;;16.00;99.90;;;;;;5042121;28;20288;-62
2023/06/10 03:59:00;;;;;;;26.00;8.00;;;16.00;99.90;;;;;;5034010;28;20049;-63
2023/06/10 04:01:27;;;;;;;24.00;7.85;;;15.90;99.90;;;;;;5032894;28;20046;-62
2023/06/10 04:03:55;;;;;;;25.70;8.90;;;15.90;99.90;;;;;;5045561;28;20053;-62
2023/06/10 04:06:22;;;;;;;27.33;9.15;;;15.90;99.90;;;;;;5037333;28;20431;-62
2023/06/10 04:08:49;;;;;;;19.23;7.45;;;15.90;99.90;;;;;;5045209;28;20228;-63
2023/06/10 04:11:16;;;;;;;21.80;6.85;;;15.90;99.90;;;;;;5040552;28;20046;-63
2023/06/10 04:13:43;;;;;;;23.65;10.20;;;15.90;99.90;;;;;;5038575;28;20068;-63
2023/06/10 04:16:10;;;;;;;18.08;7.90;;;15.90;99.90;;;;;;5035118;28;20096;-63
2023/06/10 04:18:37;;;;;;;18.52;8.80;;;15.80;99.90;;;;;;5021769;28;20424;-63
2023/06/10 04:21:04;;;;;;;29.38;9.55;;;15.90;99.90;;;;;;5032582;28;20088;-62
2023/06/10 04:23:30;;;;;;;29.52;8.23;;;15.90;99.90;;;;;;5040431;28;20045;-63
2023/06/10 04:25:59;;;;;;;22.88;9.05;;;15.90;99.90;;;;;;5014275;28;20132;-62
2023/06/10 04:28:26;;;;;;;20.83;6.97;;;15.90;99.90;;;;;;5039503;28;20411;-62
2023/06/10 04:30:53;;;;;;;22.85;7.72;;;15.90;99.90;;;;;;5032451;28;20060;-63
2023/06/10 04:33:20;;;;;;;22.13;7.10;;;15.90;99.90;;;;;;5044787;28;20107;-63
2023/06/10 04:35:47;;;;;;;23.75;8.48;;;15.90;99.90;;;;;;5036652;28;20528;-63
2023/06/10 04:38:14;;;;;;;17.33;7.63;;;15.90;99.90;;;;;;5040172;28;20049;-62
2023/06/10 04:40:41;;;;;;;27.25;7.95;;;15.90;99.90;;;;;;5044578;28;20044;-63
2023/06/10 04:43:08;;;;;;;18.38;8.35;;;15.90;99.90;;;;;;5024078;28;20065;-63
2023/06/10 04:45:35;;;;;;;23.08;8.38;;;15.90;99.90;;;;;;5044207;28;20504;-63
2023/06/10 04:48:01;;;;;;;24.17;8.25;;;16.00;99.90;;;;;;5047506;28;20052;-63
2023/06/10 04:50:28;;;;;;;22.02;7.78;;;16.00;99.90;;;;;;5038484;28;20135;-63
2023/06/10 04:52:57;;;;;;;20.00;9.45;;;16.00;99.90;;;;;;5030784;28;20045;-63
2023/06/10 04:55:23;;;;;;;21.13;8.82;;;16.00;99.90;;;;;;5046779;28;20077;-62
2023/06/10 04:57:51;;;;;;;24.92;8.75;;;16.10;99.90;;;;;;5045855;28;20277;-62
2023/06/10 05:00:18;;;;;;;23.00;7.78;;;16.00;99.90;;;;;;5035908;28;20496;-62
2023/06/10 05:02:49;;;;;;;21.58;7.45;;;16.00;99.90;;;;;;5016088;28;20045;-63
2023/06/10 05:05:17;;;;;;;22.15;7.78;;;16.10;99.90;;;;;;5039258;28;20436;-62
2023/06/10 05:07:44;;;;;;;25.67;8.23;;;16.10;99.90;;;;;;5046067;28;20049;-62
2023/06/10 05:10:12;;;;;;;26.30;8.02;;;16.10;99.90;;;;;;5035586;28;20048;-62
2023/06/10 05:12:39;;;;;;;21.90;8.07;;;16.10;99.90;;;;;;5042886;28;20485;-62
2023/06/10 05:15:07;;;;;;;18.83;7.45;;;16.10;99.90;;;;;;5038770;28;20041;-63
2023/06/10 05:17:37;;;;;;;22.50;8.23;;;16.10;99.90;;;;;;5037287;28;20100;-62
2023/06/10 05:20:04;;;;;;;21.90;9.15;;;16.20;99.90;;;;;;5038844;28;20135;-63
2023/06/10 05:22:31;;;;;;;21.30;7.18;;;16.20;99.90;;;;;;5037648;28;20068;-62
2023/06/10 05:24:58;;;;;;;22.98;7.93;;;16.20;99.90;;;;;;5044205;28;20051;-63
2023/06/10 05:27:25;;;;;;;22.55;7.72;;;16.30;99.90;;;;;;5036494;28;20100;-64
2023/06/10 05:29:52;;;;;;;19.98;7.57;;;16.40;99.90;;;;;;5035814;28;20051;-63
2023/06/10 05:32:19;;;;;;;26.33;7.50;;;16.40;99.90;;;;;;5041247;28;20281;-63
2023/06/10 05:34:48;;;;;;;20.00;7.82;;;16.40;99.90;;;;;;5034069;28;20140;-63
2023/06/10 05:37:14;;;;;;;25.85;7.57;;;16.40;99.90;;;;;;5023053;28;20066;-63
2023/06/10 05:39:41;;;;;;;26.00;8.48;;;16.40;99.90;;;;;;5029973;28;20057;-63
2023/06/10 05:42:08;;;;;;;21.67;7.55;;;16.50;99.90;;;;;;5035875;28;20053;-63
2023/06/10 05:44:35;;;;;;;17.80;7.28;;;16.50;99.90;;;;;;5043150;28;20051;-63
2023/06/10 05:47:04;;;;;;;18.98;8.23;;;16.50;99.90;;;;;;5036503;28;20278;-63
2023/06/10 05:49:31;;;;;;;28.65;8.20;;;16.60;99.90;;;;;;5030629;28;20082;-63
2023/06/10 05:51:58;;;;;;;25.60;8.07;;;16.60;99.90;;;;;;5046679;28;20046;-63
2023/06/10 05:54:26;;;;;;;22.27;7.20;;;16.70;99.90;;;;;;5050369;28;20240;-63
2023/06/10 05:56:55;;;;;;;23.75;9.20;;;16.70;99.90;;;;;;5036777;28;20435;-63
2023/06/10 05:59:22;;;;;;;23.58;8.35;;;16.70;99.90;;;;;;5047463;28;20044;-63
2023/06/10 06:01:50;;;;;;;27.95;9.45;;;16.80;99.90;;;;;;5037362;28;20055;-63
2023/06/10 06:04:16;;;;;;;25.83;8.88;;;16.90;99.90;;;;;;5022498;28;20045;-63
2023/06/10 06:06:43;;;;;;;21.92;8.63;;;16.90;99.90;;;;;;4689067;28;10000555;-63
2023/06/10 06:09:10;;;;;;;24.83;9.35;;;16.90;99.90;;;;;;5032434;28;20048;-63
2023/06/10 06:11:37;;;;;;;19.35;8.80;;;17.00;99.90;;;;;;5031480;28;20048;-63
2023/06/10 06:14:04;;;;;;;30.95;10.00;;;17.10;99.90;;;;;;5039520;28;20052;-63
2023/06/10 06:16:31;;;;;;;28.00;9.50;;;17.10;99.90;;;;;;5039209;28;20052;-63
2023/06/10 06:18:58;;;;;;;21.80;8.27;;;17.20;99.90;;;;;;5035989;28;20052;-64
2023/06/10 06:21:25;;;;;;;20.42;8.57;;;17.30;99.90;;;;;;5015290;28;20049;-63
2023/06/10 06:23:51;;;;;;;29.95;9.30;;;17.30;99.90;;;;;;5033482;28;20088;-63
2023/06/10 06:26:18;;;;;;;21.05;8.60;;;17.40;99.90;;;;;;5034089;28;20076;-63
2023/06/10 06:28:45;;;;;;;27.40;8.63;;;17.50;99.90;;;;;;5034416;28;20063;-64
2023/06/10 06:31:12;;;;;;;25.88;10.20;;;17.50;99.90;;;;;;5013831;28;20145;-63
2023/06/10 06:33:39;;;;;;;20.95;10.30;;;17.50;99.90;;;;;;5034189;28;20306;-63
2023/06/10 06:36:06;;;;;;;25.80;8.82;;;17.50;99.90;;;;;;5033604;28;20404;-64
2023/06/10 06:38:33;;;;;;;24.27;10.48;;;17.60;99.90;;;;;;5035218;28;20056;-63
2023/06/10 06:41:05;;;;;;;28.75;9.15;;;17.60;99.90;;;;;;5042732;28;20118;-64
2023/06/10 06:43:33;;;;;;;22.65;9.93;;;17.70;99.90;;;;;;5033503;28;20054;-63
2023/06/10 06:45:59;;;;;;;24.45;8.65;;;17.80;99.90;;;;;;5025400;28;20045;-63
2023/06/10 06:48:26;;;;;;;23.92;9.20;;;17.90;99.90;;;;;;5013936;28;20095;-63
2023/06/10 06:50:56;;;;;;;24.15;8.25;;;18.00;99.90;;;;;;5041762;28;20053;-63
2023/06/10 06:53:22;;;;;;;27.27;11.05;;;18.10;99.90;;;;;;5037290;28;20064;-67
2023/06/10 06:55:49;;;;;;;26.27;8.75;;;18.20;99.90;;;;;;5019923;28;20049;-63
2023/06/10 06:58:16;;;;;;;24.52;9.27;;;18.30;99.90;;;;;;5038184;28;20048;-64
2023/06/10 07:00:43;;;;;;;21.05;10.20;;;18.40;99.90;;;;;;5037095;28;20049;-63
2023/06/10 07:03:10;;;;;;;25.17;10.82;;;18.40;99.90;;;;;;5037794;28;20076;-63
2023/06/10 07:05:38;;;;;;;21.63;11.18;;;18.50;99.90;;;;;;5041045;28;20071;-64
2023/06/10 07:08:05;;;;;;;27.50;9.85;;;18.60;99.90;;;;;;5036982;28;20040;-63
2023/06/10 07:10:32;;;;;;;29.75;11.68;;;18.70;99.90;;;;;;5022992;28;20056;-63
2023/06/10 07:12:59;;;;;;;25.65;11.20;;;18.80;99.90;;;;;;5033295;28;20049;-64
2023/06/10 07:15:26;;;;;;;25.45;11.25;;;18.80;99.90;;;;;;5040141;28;20082;-65
2023/06/10 07:17:53;;;;;;;30.90;12.35;;;18.90;99.90;;;;;;5022056;28;20056;-60
2023/06/10 07:20:20;;;;;;;36.00;13.00;;;18.90;99.90;;;;;;5031387;28;20076;-60
2023/06/10 07:22:47;;;;;;;26.60;10.93;;;19.00;99.90;;;;;;5033994;28;20115;-59
2023/06/10 07:25:15;;;;;;;22.17;11.40;;;19.00;99.90;;;;;;5040903;28;20041;-60
2023/06/10 07:27:42;;;;;;;23.42;9.85;;;19.10;99.90;;;;;;5030906;28;20049;-59
2023/06/10 07:30:10;;;;;;;31.20;10.55;;;19.20;99.90;;;;;;5039609;28;20044;-60
2023/06/10 07:32:37;;;;;;;22.30;10.85;;;19.20;99.90;;;;;;5043912;28;20646;-59
2023/06/10 07:35:08;;;;;;;18.23;9.15;;;19.30;99.90;;;;;;5035203;28;20397;-59
2023/06/10 07:37:38;;;;;;;33.83;10.65;;;19.20;99.90;;;;;;5014122;28;20083;-60
2023/06/10 07:40:05;;;;;;;20.45;10.20;;;19.30;99.90;;;;;;5036309;28;20053;-60
2023/06/10 07:42:34;;;;;;;23.52;10.10;;;19.40;99.90;;;;;;5025516;28;20518;-60
2023/06/10 07:45:02;;;;;;;20.75;9.80;;;19.50;99.90;;;;;;5040870;28;20045;-60
2023/06/10 07:47:29;;;;;;;23.88;10.95;;;19.60;99.90;;;;;;5037064;28;20064;-60
2023/06/10 07:49:56;;;;;;;19.67;9.35;;;19.60;99.90;;;;;;5033720;28;20567;-59
2023/06/10 07:52:24;;;;;;;26.17;10.50;;;19.70;99.90;;;;;;5057924;28;20064;-58
2023/06/10 07:54:50;;;;;;;28.77;11.60;;;19.70;99.90;;;;;;5036098;28;20053;-59
2023/06/10 07:57:18;;;;;;;22.60;9.88;;;19.80;99.90;;;;;;5033528;28;20417;-58
2023/06/10 07:59:46;;;;;;;27.45;10.65;;;19.90;99.90;;;;;;5032348;28;20496;-59
2023/06/10 08:02:13;;;;;;;27.67;10.90;;;20.00;99.90;;;;;;5038820;28;20057;-60
2023/06/10 08:04:40;;;;;;;19.30;10.10;;;20.10;99.90;;;;;;5030621;28;20667;-59
2023/06/10 08:07:07;;;;;;;26.45;11.13;;;20.10;99.90;;;;;;5034001;28;20519;-59
2023/06/10 08:09:34;;;;;;;25.80;10.88;;;20.30;99.90;;;;;;5040912;28;20130;-59
2023/06/10 08:12:01;;;;;;;25.85;11.05;;;20.40;99.90;;;;;;5030813;28;20103;-58
2023/06/10 08:14:28;;;;;;;27.23;12.20;;;20.50;99.90;;;;;;5039420;28;20404;-57
2023/06/10 08:16:55;;;;;;;29.98;10.98;;;20.50;99.90;;;;;;5039284;28;20055;-57
2023/06/10 08:19:22;;;;;;;29.05;11.73;;;20.70;99.90;;;;;;5039393;28;20052;-58
2023/06/10 08:21:49;;;;;;;20.15;10.85;;;20.80;99.90;;;;;;5036334;28;20041;-59
2023/06/10 08:24:18;;;;;;;25.67;10.70;;;20.80;99.90;;;;;;5034674;28;20049;-58
2023/06/10 08:26:45;;;;;;;24.40;11.48;;;20.90;99.90;;;;;;5034886;28;20080;-58
2023/06/10 08:29:12;;;;;;;26.48;11.95;;;21.00;99.90;;;;;;5036648;28;20515;-60
2023/06/10 08:31:42;;;;;;;32.50;12.57;;;21.00;99.90;;;;;;5033236;28;20159;-59
2023/06/10 08:34:10;;;;;;;25.25;11.98;;;21.20;99.90;;;;;;5042745;28;20049;-58
2023/06/10 08:36:37;;;;;;;22.48;11.48;;;21.30;99.90;;;;;;5037737;28;20055;-58
2023/06/10 08:39:03;;;;;;;22.23;10.27;;;21.40;99.90;;;;;;5030017;28;20057;-59
2023/06/10 08:41:32;;;;;;;19.33;10.88;;;21.40;99.90;;;;;;5032397;28;20090;-58
2023/06/10 08:44:12;;;;;;;20.92;11.98;;;21.50;99.90;;;;;;5043260;28;20099;-58
2023/06/10 08:46:39;;;;;;;25.80;11.07;;;21.60;99.90;;;;;;5023156;28;20052;-59
2023/06/10 08:49:09;;;;;;;17.80;10.25;;;21.70;99.90;;;;;;5002961;28;20122;-59
2023/06/10 08:51:39;;;;;;;25.90;10.13;;;21.80;99.90;;;;;;5035827;28;20064;-60
2023/06/10 08:54:13;;;;;;;27.45;11.80;;;21.80;99.90;;;;;;5038842;28;20061;-59
2023/06/10 08:56:40;;;;;;;29.95;10.68;;;21.90;99.90;;;;;;5015206;28;20075;-58
2023/06/10 08:59:06;;;;;;;30.50;13.07;;;22.00;99.90;;;;;;5023548;28;20065;-57
2023/06/10 09:01:33;;;;;;;25.95;10.52;;;22.00;99.90;;;;;;5014455;28;20094;-58
2023/06/10 09:04:00;;;;;;;15.00;9.10;;;22.20;99.90;;;;;;5029901;28;20136;-58
2023/06/10 09:06:27;;;;;;;23.95;11.40;;;22.40;99.90;;;;;;5027940;28;20441;-59
2023/06/10 09:08:54;;;;;;;26.25;10.73;;;22.50;99.90;;;;;;5040739;28;20501;-58
2023/06/10 09:11:21;;;;;;;23.42;9.48;;;22.50;99.90;;;;;;5028349;28;20068;-59
2023/06/10 09:13:48;;;;;;;18.58;10.23;;;22.60;99.90;;;;;;5015389;28;20118;-59
2023/06/10 09:16:16;;;;;;;25.05;9.95;;;22.70;99.90;;;;;;5042112;28;20049;-59
2023/06/10 09:18:43;;;;;;;35.13;11.02;;;22.80;99.90;;;;;;5042928;28;20052;-59
2023/06/10 09:21:10;;;;;;;19.48;9.75;;;23.00;99.90;;;;;;5015385;28;20049;-60
2023/06/10 09:23:37;;;;;;;17.83;9.40;;;23.00;99.90;;;;;;5039613;28;20115;-59
2023/06/10 09:26:11;;;;;;;20.33;10.32;;;23.10;99.90;;;;;;5039999;28;20492;-58
2023/06/10 09:28:45;;;;;;;24.05;10.48;;;23.20;99.90;;;;;;5038836;28;20569;-58
2023/06/10 09:31:11;;;;;;;18.50;11.10;;;23.40;99.90;;;;;;5018073;28;20049;-59
2023/06/10 09:33:41;;;;;;;33.78;9.18;;;23.50;99.90;;;;;;5035645;28;20519;-58
2023/06/10 09:36:12;;;;;;;14.13;8.85;;;23.60;99.90;;;;;;5037226;28;20060;-59
2023/06/10 09:38:39;;;;;;;13.63;9.10;;;23.70;99.90;;;;;;5022228;28;20060;-59
2023/06/10 09:41:06;;;;;;;17.98;10.75;;;23.90;99.90;;;;;;5044114;28;20095;-57
2023/06/10 09:43:43;;;;;;;22.33;9.98;;;24.00;99.90;;;;;;5038737;28;20614;-58
2023/06/10 09:46:17;;;;;;;14.32;9.20;;;24.20;99.90;;;;;;5036864;28;20045;-58
2023/06/10 09:48:45;;;;;;;18.60;9.90;;;24.20;99.90;;;;;;5021644;28;20050;-60
2023/06/10 09:51:13;;;;;;;18.35;9.20;;;24.30;99.90;;;;;;5044751;28;20095;-59
2023/06/10 09:53:40;;;;;;;27.83;9.30;;;24.40;99.90;;;;;;5038951;28;20042;-59
2023/06/10 09:56:07;;;;;;;15.18;8.68;;;24.60;99.90;;;;;;5036570;28;20151;-59
2023/06/10 09:58:37;;;;;;;14.45;7.65;;;24.70;99.90;;;;;;5038573;28;20045;-59
2023/06/10 10:01:06;;;;;;;22.92;8.35;;;24.80;99.90;;;;;;5034816;28;20049;-59
2023/06/10 10:03:33;;;;;;;17.10;8.70;;;24.90;99.90;;;;;;5030492;28;20088;-59
2023/06/10 10:06:02;;;;;;;15.35;8.93;;;25.10;99.90;;;;;;5047194;28;20057;-59
2023/06/10 10:08:29;;;;;;;25.92;8.85;;;25.30;99.90;;;;;;5018914;28;20081;-59
2023/06/10 10:10:57;;;;;;;13.73;8.50;;;25.50;99.90;;;;;;5010040;28;20051;-59
2023/06/10 10:13:24;;;;;;;14.63;7.80;;;25.90;99.90;;;;;;5036489;28;20240;-59
2023/06/10 10:15:51;;;;;;;18.10;7.88;;;26.30;99.90;;;;;;5043139;28;20323;-59
2023/06/10 10:18:18;;;;;;;13.13;7.85;;;26.60;99.90;;;;;;5035557;28;20053;-59
2023/06/10 10:20:50;;;;;;;14.00;7.50;;;26.90;99.90;;;;;;5016048;28;20075;-59
2023/06/10 10:23:21;;;;;;;16.75;7.25;;;27.30;99.90;;;;;;5036866;28;20045;-59
2023/06/10 10:25:51;;;;;;;14.10;7.75;;;27.70;99.90;;;;;;5038834;28;20049;-60
2023/06/10 10:28:18;;;;;;;16.63;6.55;;;27.90;99.70;;;;;;5020181;28;20106;-59
2023/06/10 10:30:49;;;;;;;12.57;7.50;;;28.10;99.90;;;;;;5014856;28;20504;-59
2023/06/10 10:33:18;;;;;;;18.52;7.20;;;28.20;99.50;;;;;;5036044;28;20512;-59
2023/06/10 10:35:48;;;;;;;13.15;7.20;;;28.50;99.40;;;;;;5035743;28;20053;-59
2023/06/10 10:38:16;;;;;;;10.68;7.18;;;28.80;98.40;;;;;;5017614;28;20500;-59
2023/06/10 10:43:31;;;;;;;15.25;6.97;;;29.40;95.90;;;;;;5029024;28;20056;-58
2023/06/10 10:46:01;;;;;;;17.60;7.93;;;29.60;97.20;;;;;;5026930;28;20056;-59
2023/06/10 10:48:35;;;;;;;14.02;7.88;;;29.70;94.70;;;;;;5029607;28;20064;-59
2023/06/10 10:51:02;;;;;;;21.08;7.82;;;29.60;95.30;;;;;;5047037;28;20044;-59
2023/06/10 10:53:29;;;;;;;19.23;8.52;;;29.50;95.90;;;;;;5047046;28;20053;-58
2023/06/10 10:56:14;;;;;;;30.60;8.05;;;29.30;95.70;;;;;;5046047;28;20075;-60
2023/06/10 10:58:40;;;;;;;19.92;7.20;;;28.90;94.20;;;;;;5047465;28;20056;-60
2023/06/10 11:01:12;;;;;;;18.75;7.47;;;28.70;95.60;;;;;;5047290;28;20822;-59
2023/06/10 11:03:46;;;;;;;15.65;7.95;;;28.50;95.60;;;;;;5046542;28;20060;-56
2023/06/10 11:06:15;;;;;;;16.92;7.38;;;28.30;95.30;;;;;;5046635;28;20067;-59
2023/06/10 11:08:43;;;;;;;19.10;7.65;;;28.20;95.90;;;;;;5047489;28;20099;-59
2023/06/10 11:11:26;;;;;;;15.10;8.63;;;28.00;96.00;;;;;;5047131;28;20120;-60
2023/06/10 11:14:04;;;;;;;18.98;7.57;;;27.90;96.30;;;;;;5044716;28;20128;-60
2023/06/10 11:16:31;;;;;;;20.58;8.27;;;27.90;96.20;;;;;;5047096;28;20145;-58
2023/06/10 11:18:58;;;;;;;16.90;8.50;;;27.80;96.60;;;;;;5029800;28;20491;-58
2023/06/10 11:21:25;;;;;;;12.98;7.50;;;27.80;96.80;;;;;;5047600;28;20059;-60
2023/06/10 11:23:57;;;;;;;12.48;7.07;;;27.80;96.80;;;;;;5046806;28;20041;-60
2023/06/10 11:26:34;;;;;;;20.30;8.25;;;27.70;96.50;;;;;;5047141;28;20053;-61
2023/06/10 11:29:08;;;;;;;17.85;8.60;;;27.70;97.10;;;;;;5047661;28;20199;-59
2023/06/10 11:31:39;;;;;;;14.68;8.32;;;27.70;97.00;;;;;;5029824;28;20076;-61
2023/06/10 11:34:07;;;;;;;18.83;8.20;;;27.70;96.60;;;;;;5045989;28;20431;-59
2023/06/10 11:36:36;;;;;;;28.52;8.30;;;27.70;97.20;;;;;;5046460;28;20148;-60
2023/06/10 11:39:05;;;;;;;18.48;8.05;;;27.80;97.30;;;;;;5048520;28;20106;-59
2023/06/10 11:41:38;;;;;;;17.90;7.53;;;27.90;97.20;;;;;;5051089;28;20057;-59
2023/06/10 11:44:08;;;;;;;18.23;8.45;;;28.00;97.10;;;;;;5032768;28;20053;-59
2023/06/10 11:46:35;;;;;;;16.77;8.80;;;28.00;96.80;;;;;;5050668;28;20045;-59
2023/06/10 11:49:02;;;;;;;16.10;7.85;;;28.00;97.00;;;;;;5049371;28;20083;-59
2023/06/10 11:51:32;;;;;;;20.45;7.15;;;28.00;96.80;;;;;;5032610;28;20063;-58
2023/06/10 11:53:59;;;;;;;19.63;8.93;;;28.10;96.60;;;;;;5049936;28;20487;-59
2023/06/10 11:56:27;;;;;;;18.70;7.80;;;28.00;96.50;;;;;;5032450;28;20052;-58
2023/06/10 11:58:57;;;;;;;11.05;7.50;;;28.10;96.90;;;;;;5050460;28;20106;-58
2023/06/10 12:01:25;;;;;;;14.20;7.75;;;28.20;96.40;;;;;;5050498;28;20048;-59
2023/06/10 12:04:05;;;;;;;13.95;8.30;;;28.20;96.60;;;;;;5049727;28;20044;-59
2023/06/10 12:06:38;;;;;;;17.48;8.13;;;28.30;96.40;;;;;;5050383;28;20415;-59
2023/06/10 12:09:06;;;;;;;18.63;7.78;;;28.40;96.20;;;;;;5049439;28;20041;-60
2023/06/10 12:11:55;;;;;;;13.38;8.32;;;28.50;96.00;;;;;;5049614;28;20053;-59
2023/06/10 12:14:53;;;;;;;17.70;9.32;;;28.50;96.00;;;;;;5047980;28;20068;-59
2023/06/10 12:17:21;;;;;;;15.82;7.95;;;28.60;95.50;;;;;;5050296;28;20084;-59
2023/06/10 12:19:49;;;;;;;13.80;7.30;;;28.60;95.80;;;;;;5049851;28;20119;-60
2023/06/10 12:22:16;;;;;;;15.68;7.70;;;28.70;95.60;;;;;;5049876;28;20126;-59
2023/06/10 12:25:00;;;;;;;14.23;8.35;;;28.70;95.80;;;;;;5049893;28;20041;-59
2023/06/10 12:27:29;;;;;;;11.52;7.15;;;28.80;95.40;;;;;;5050695;28;20052;-60
2023/06/10 12:30:06;;;;;;;16.33;7.57;;;28.80;95.30;;;;;;5051100;28;20049;-59
2023/06/10 12:32:40;;;;;;;16.13;7.68;;;28.90;95.30;;;;;;5050270;28;20059;-59
2023/06/10 12:35:08;;;;;;;13.60;7.55;;;28.90;94.80;;;;;;5049189;28;20079;-59
2023/06/10 12:37:36;;;;;;;18.25;8.15;;;28.90;95.10;;;;;;5049924;28;20049;-59
2023/06/10 12:40:11;;;;;;;10.38;7.50;;;29.10;94.90;;;;;;5049444;28;20044;-59
2023/06/10 12:42:38;;;;;;;13.63;7.85;;;29.10;94.60;;;;;;5049261;28;20088;-59
2023/06/10 12:45:07;;;;;;;12.85;7.82;;;29.20;94.30;;;;;;5047783;28;20437;-59